| time (UTC) | temp F | wind direction | speed knots | gust knots | rain 1hr in | rain 24hr in | rain mn in | humidity % | barometer mb |
| 20260506033021 | 42 | 188 | 0.0 | 0.0 | 0.00 | 0.04 | 0.04 | 86 | 1008.1 |
| 20260506031503 | 42 | 188 | 0.0 | 0.0 | 0.00 | 0.04 | 0.04 | 86 | 1007.9 |
| 20260506030006 | 41 | 188 | 0.0 | 0.0 | 0.00 | 0.04 | 0.04 | 86 | 1008.1 |
| 20260506024510 | 41 | 188 | 0.0 | 0.0 | 0.00 | 0.04 | 0.04 | 87 | 1008.1 |
| 20260506023011 | 41 | 188 | 0.0 | 1.7 | 0.00 | 0.04 | 0.04 | 86 | 1008.1 |
| 20260506021518 | 41 | 188 | 0.0 | 0.0 | 0.00 | 0.04 | 0.04 | 86 | 1008.2 |
| 20260506020004 | 41 | 188 | 0.0 | 0.0 | 0.00 | 0.04 | 0.04 | 84 | 1008.2 |
| 20260506014509 | 42 | 188 | 0.0 | 0.0 | 0.00 | 0.04 | 0.04 | 84 | 1008.3 |
| 20260506013012 | 42 | 188 | 0.0 | 0.0 | 0.00 | 0.04 | 0.04 | 83 | 1008.1 |
| 20260506011517 | 43 | 188 | 0.0 | 0.0 | 0.00 | 0.04 | 0.04 | 81 | 1008.0 |
| 20260506010025 | 44 | 188 | 0.0 | 0.9 | 0.00 | 0.04 | 0.04 | 79 | 1007.7 |
| 20260506004514 | 45 | 188 | 0.0 | 0.0 | 0.00 | 0.04 | 0.04 | 77 | 1007.3 |
| 20260506003008 | 45 | 188 | 0.0 | 0.0 | 0.00 | 0.04 | 0.04 | 77 | 1007.3 |
| 20260506001512 | 46 | 188 | 0.0 | 1.7 | 0.00 | 0.04 | 0.04 | 74 | 1007.3 |
| 20260506000025 | 46 | 188 | 0.0 | 1.7 | 0.00 | 0.04 | 0.04 | 75 | 1007.4 |
| 20260505234522 | 46 | 188 | 0.0 | 1.7 | 0.00 | 0.04 | 0.04 | 73 | 1007.3 |
| 20260505233007 | 47 | 238 | 0.0 | 1.7 | 0.00 | 0.04 | 0.04 | 71 | 1007.2 |
| 20260505231513 | 47 | 233 | 0.0 | 1.7 | 0.00 | 0.04 | 0.04 | 71 | 1007.1 |
| 20260505230030 | 47 | 261 | 0.0 | 1.7 | 0.00 | 0.04 | 0.04 | 71 | 1007.0 |
| 20260505224520 | 47 | 266 | 0.0 | 2.6 | 0.00 | 0.04 | 0.04 | 68 | 1007.1 |
| 20260505223024 | 47 | 217 | 0.0 | 1.7 | 0.00 | 0.04 | 0.04 | 71 | 1007.4 |
| 20260505221508 | 47 | 250 | 0.9 | 1.7 | 0.00 | 0.04 | 0.04 | 70 | 1007.7 |
| 20260505220014 | 47 | 222 | 0.0 | 1.7 | 0.00 | 0.04 | 0.04 | 71 | 1007.3 |
| 20260505214519 | 47 | 228 | 0.9 | 3.5 | 0.00 | 0.04 | 0.04 | 70 | 1007.4 |
| 20260505213027 | 47 | 245 | 0.9 | 2.6 | 0.00 | 0.04 | 0.04 | 69 | 1007.4 |
| 20260505211530 | 46 | 241 | 0.0 | 3.5 | 0.00 | 0.04 | 0.04 | 72 | 1007.3 |
| 20260505210009 | 46 | 203 | 0.0 | 4.3 | 0.00 | 0.04 | 0.04 | 73 | 1007.2 |
| 20260505204517 | 46 | 234 | 0.9 | 4.3 | 0.00 | 0.04 | 0.04 | 72 | 1007.3 |
| 20260505203023 | 46 | 250 | 0.0 | 1.7 | 0.00 | 0.04 | 0.04 | 74 | 1007.1 |
| 20260505201525 | 46 | 229 | 0.9 | 3.5 | 0.00 | 0.04 | 0.04 | 73 | 1007.2 |
| 20260505200028 | 46 | 276 | 0.9 | 6.1 | 0.00 | 0.04 | 0.04 | 75 | 1007.1 |
| 20260505194513 | 45 | 340 | 0.9 | 6.1 | 0.00 | 0.04 | 0.04 | 79 | 1007.1 |
| 20260505193020 | 45 | 210 | 0.0 | 5.2 | 0.02 | 0.04 | 0.04 | 80 | 1006.8 |
| 20260505191530 | 45 | 272 | 0.0 | 3.5 | 0.04 | 0.04 | 0.04 | 82 | 1006.5 |
| 20260505190028 | 45 | 267 | 0.9 | 3.5 | 0.04 | 0.04 | 0.04 | 82 | 1006.7 |
| 20260505184537 | 46 | 259 | 0.0 | 3.5 | 0.04 | 0.04 | 0.04 | 82 | 1006.3 |
| 20260505183019 | 46 | 281 | 0.0 | 2.6 | 0.02 | 0.02 | 0.02 | 80 | 1006.2 |
| 20260505181503 | 47 | 245 | 0.9 | 3.5 | 0.00 | 0.00 | 0.00 | 76 | 1006.2 |
| 20260505180005 | 49 | 352 | 0.9 | 3.5 | 0.00 | 0.00 | 0.00 | 67 | 1005.9 |
| 20260505174508 | 51 | 338 | 1.7 | 4.3 | 0.00 | 0.00 | 0.00 | 60 | 1005.6 |
| 20260505173014 | 51 | 304 | 0.9 | 6.1 | 0.00 | 0.00 | 0.00 | 58 | 1005.3 |
| 20260505171530 | 51 | 288 | 0.9 | 5.2 | 0.00 | 0.00 | 0.00 | 62 | 1005.3 |
| 20260505170004 | 51 | 237 | 0.9 | 4.3 | 0.00 | 0.00 | 0.00 | 58 | 1005.3 |
| 20260505164504 | 52 | 357 | 0.9 | 5.2 | 0.00 | 0.00 | 0.00 | 59 | 1005.2 |
| 20260505163014 | 52 | 304 | 2.6 | 7.0 | 0.00 | 0.00 | 0.00 | 58 | 1005.0 |
| 20260505161518 | 52 | 303 | 0.9 | 6.1 | 0.00 | 0.00 | 0.00 | 59 | 1004.9 |
| 20260505153028 | 53 | 11 | 1.7 | 7.0 | 0.00 | 0.00 | 0.00 | 58 | 1004.9 |
| 20260505151514 | 53 | 231 | 1.7 | 5.2 | 0.00 | 0.00 | 0.00 | 62 | 1004.1 |
| 20260505124519 | 48 | 352 | 1.7 | 5.2 | 0.00 | 0.00 | 0.00 | 82 | 1002.3 |
| 20260505123030 | 49 | 321 | 1.7 | 5.2 | 0.00 | 0.00 | 0.00 | 82 | 1001.5 |
| 20260505121528 | 50 | 267 | 0.9 | 6.1 | 0.00 | 0.00 | 0.00 | 83 | 1001.2 |
| 20260505120011 | 53 | 91 | 0.9 | 7.8 | 0.00 | 0.00 | 0.00 | 83 | 1001.0 |
| 20260505114516 | 54 | 284 | 2.6 | 7.8 | 0.00 | 0.00 | 0.00 | 83 | 1000.4 |
| 20260505113022 | 54 | 233 | 1.7 | 7.0 | 0.00 | 0.00 | 0.00 | 83 | 1000.2 |
| 20260505111532 | 54 | 268 | 2.6 | 7.8 | 0.00 | 0.00 | 0.00 | 83 | 999.9 |
| 20260505101524 | 54 | 233 | 1.7 | 6.1 | 0.00 | 0.00 | 0.00 | 84 | 999.0 |
| 20260505100032 | 54 | 206 | 2.6 | 5.2 | 0.00 | 0.00 | 0.00 | 84 | 999.0 |
| 20260505094526 | 54 | 302 | 0.9 | 5.2 | 0.00 | 0.00 | 0.00 | 83 | 998.8 |
| 20260505093018 | 54 | 229 | 0.9 | 7.0 | 0.00 | 0.00 | 0.00 | 83 | 998.5 |
| 20260505091504 | 54 | 221 | 1.7 | 6.1 | 0.00 | 0.00 | 0.00 | 83 | 998.4 |
| 20260505090008 | 55 | 196 | 1.7 | 7.0 | 0.00 | 0.00 | 0.00 | 82 | 998.5 |
| 20260505084512 | 55 | 245 | 0.9 | 3.5 | 0.00 | 0.00 | 0.00 | 82 | 998.0 |
| 20260505083015 | 55 | 217 | 0.9 | 3.5 | 0.00 | 0.00 | 0.00 | 81 | 998.1 |
| 20260505081525 | 56 | 237 | 1.7 | 5.2 | 0.00 | 0.00 | 0.00 | 79 | 998.2 |
| 20260505080003 | 56 | 219 | 1.7 | 4.3 | 0.00 | 0.00 | 0.00 | 79 | 998.6 |
| 20260505074508 | 56 | 236 | 1.7 | 4.3 | 0.00 | 0.00 | 0.00 | 78 | 998.7 |
| 20260505073015 | 57 | 201 | 1.7 | 7.0 | 0.00 | 0.00 | 0.00 | 77 | 998.8 |
| 20260505071520 | 56 | 143 | 1.7 | 7.8 | 0.00 | 0.00 | 0.00 | 78 | 998.9 |
| 20260505070022 | 57 | 221 | 0.9 | 7.8 | 0.00 | 0.00 | 0.00 | 77 | 999.1 |
| 20260505064505 | 57 | 176 | 2.6 | 8.7 | 0.00 | 0.00 | 0.00 | 76 | 999.0 |
| 20260505063011 | 57 | 220 | 2.6 | 7.8 | 0.00 | 0.00 | 0.00 | 76 | 999.2 |
| 20260505061516 | 57 | 172 | 2.6 | 7.0 | 0.00 | 0.00 | 0.00 | 76 | 999.3 |
| 20260505060022 | 57 | 199 | 1.7 | 10.4 | 0.00 | 0.00 | 0.00 | 76 | 999.4 |
| 20260505054542 | 57 | 205 | 1.7 | 7.0 | 0.00 | 0.00 | 0.00 | 76 | 999.5 |
| 20260505053011 | 57 | 191 | 1.7 | 7.0 | 0.00 | 0.00 | 0.00 | 76 | 999.6 |
| 20260505051516 | 58 | 323 | 1.7 | 11.3 | 0.00 | 0.00 | 0.00 | 75 | 999.5 |
| 20260505041511 | 59 | 144 | 2.6 | 11.3 | 0.00 | 0.00 | 0.00 | 72 | 999.5 |
| 20260505040016 | 58 | 200 | 4.3 | 9.6 | 0.00 | 0.00 | 0.00 | 72 | 999.6 |
| 20260505034526 | 58 | 349 | 3.5 | 7.0 | 0.00 | 0.00 | 0.00 | 73 | 999.7 |